sensor_id;sensor_type;location;lat;lon;timestamp;P1;durP1;ratioP1;P2;durP2;ratioP2
62052;SDS011;48300;52.902;6.534;2023-04-15T00:01:51;6.60;;;2.83;;
62052;SDS011;48300;52.902;6.534;2023-04-15T00:04:17;6.85;;;2.92;;
62052;SDS011;48300;52.902;6.534;2023-04-15T00:06:49;11.98;;;3.55;;
62052;SDS011;48300;52.902;6.534;2023-04-15T00:09:17;6.43;;;2.83;;
62052;SDS011;48300;52.902;6.534;2023-04-15T00:11:43;6.97;;;3.20;;
62052;SDS011;48300;52.902;6.534;2023-04-15T00:14:11;9.07;;;2.92;;
62052;SDS011;48300;52.902;6.534;2023-04-15T00:16:37;6.53;;;3.40;;
62052;SDS011;48300;52.902;6.534;2023-04-15T00:19:03;6.88;;;3.15;;
62052;SDS011;48300;52.902;6.534;2023-04-15T00:21:29;6.32;;;2.80;;
62052;SDS011;48300;52.902;6.534;2023-04-15T00:23:56;8.10;;;3.33;;
62052;SDS011;48300;52.902;6.534;2023-04-15T00:26:22;10.10;;;3.53;;
62052;SDS011;48300;52.902;6.534;2023-04-15T00:28:48;9.75;;;4.03;;
62052;SDS011;48300;52.902;6.534;2023-04-15T00:31:15;9.00;;;2.78;;
62052;SDS011;48300;52.902;6.534;2023-04-15T00:33:41;8.35;;;2.97;;
62052;SDS011;48300;52.902;6.534;2023-04-15T00:36:07;8.10;;;3.58;;
62052;SDS011;48300;52.902;6.534;2023-04-15T00:38:35;7.13;;;3.70;;
62052;SDS011;48300;52.902;6.534;2023-04-15T00:41:01;6.30;;;3.15;;
62052;SDS011;48300;52.902;6.534;2023-04-15T00:43:28;9.40;;;3.10;;
62052;SDS011;48300;52.902;6.534;2023-04-15T00:45:54;6.90;;;3.40;;
62052;SDS011;48300;52.902;6.534;2023-04-15T00:48:21;9.60;;;4.13;;
62052;SDS011;48300;52.902;6.534;2023-04-15T00:50:48;9.63;;;3.95;;
62052;SDS011;48300;52.902;6.534;2023-04-15T00:53:14;7.00;;;3.10;;
62052;SDS011;48300;52.902;6.534;2023-04-15T00:55:40;10.25;;;3.60;;
62052;SDS011;48300;52.902;6.534;2023-04-15T00:58:06;9.85;;;3.58;;
62052;SDS011;48300;52.902;6.534;2023-04-15T01:00:32;7.40;;;3.15;;
62052;SDS011;48300;52.902;6.534;2023-04-15T01:03:00;6.53;;;3.55;;
62052;SDS011;48300;52.902;6.534;2023-04-15T01:05:26;9.25;;;3.55;;
62052;SDS011;48300;52.902;6.534;2023-04-15T01:07:53;10.48;;;3.78;;
62052;SDS011;48300;52.902;6.534;2023-04-15T01:10:20;7.80;;;3.95;;
62052;SDS011;48300;52.902;6.534;2023-04-15T01:12:46;10.80;;;4.15;;
62052;SDS011;48300;52.902;6.534;2023-04-15T01:15:12;9.65;;;3.58;;
62052;SDS011;48300;52.902;6.534;2023-04-15T01:17:38;10.60;;;3.72;;
62052;SDS011;48300;52.902;6.534;2023-04-15T01:20:05;8.15;;;3.58;;
62052;SDS011;48300;52.902;6.534;2023-04-15T01:22:35;6.05;;;3.58;;
62052;SDS011;48300;52.902;6.534;2023-04-15T01:25:11;10.23;;;4.00;;
62052;SDS011;48300;52.902;6.534;2023-04-15T01:27:38;10.07;;;4.55;;
62052;SDS011;48300;52.902;6.534;2023-04-15T01:30:05;10.52;;;4.55;;
62052;SDS011;48300;52.902;6.534;2023-04-15T01:32:32;9.25;;;3.92;;
62052;SDS011;48300;52.902;6.534;2023-04-15T01:34:58;10.55;;;4.20;;
62052;SDS011;48300;52.902;6.534;2023-04-15T01:37:24;8.32;;;4.13;;
62052;SDS011;48300;52.902;6.534;2023-04-15T01:39:51;10.32;;;4.10;;
62052;SDS011;48300;52.902;6.534;2023-04-15T01:42:17;9.88;;;4.00;;
62052;SDS011;48300;52.902;6.534;2023-04-15T01:44:43;14.68;;;4.75;;
62052;SDS011;48300;52.902;6.534;2023-04-15T01:47:09;11.15;;;4.50;;
62052;SDS011;48300;52.902;6.534;2023-04-15T01:49:36;10.43;;;4.85;;
62052;SDS011;48300;52.902;6.534;2023-04-15T01:52:02;9.40;;;5.15;;
62052;SDS011;48300;52.902;6.534;2023-04-15T01:54:28;9.40;;;4.72;;
62052;SDS011;48300;52.902;6.534;2023-04-15T01:56:54;18.73;;;5.10;;
62052;SDS011;48300;52.902;6.534;2023-04-15T01:59:21;14.45;;;4.75;;
62052;SDS011;48300;52.902;6.534;2023-04-15T02:01:47;10.90;;;5.05;;
62052;SDS011;48300;52.902;6.534;2023-04-15T02:04:13;11.48;;;5.20;;
62052;SDS011;48300;52.902;6.534;2023-04-15T02:06:41;9.38;;;4.78;;
62052;SDS011;48300;52.902;6.534;2023-04-15T02:09:08;15.80;;;4.93;;
62052;SDS011;48300;52.902;6.534;2023-04-15T02:11:35;10.32;;;5.18;;
62052;SDS011;48300;52.902;6.534;2023-04-15T02:14:02;11.90;;;5.93;;
62052;SDS011;48300;52.902;6.534;2023-04-15T02:16:30;11.73;;;5.30;;
62052;SDS011;48300;52.902;6.534;2023-04-15T02:18:56;16.70;;;5.45;;
62052;SDS011;48300;52.902;6.534;2023-04-15T02:21:23;19.45;;;6.18;;
62052;SDS011;48300;52.902;6.534;2023-04-15T02:23:51;15.10;;;6.22;;
62052;SDS011;48300;52.902;6.534;2023-04-15T02:26:18;12.52;;;5.50;;
62052;SDS011;48300;52.902;6.534;2023-04-15T02:28:45;14.05;;;6.45;;
62052;SDS011;48300;52.902;6.534;2023-04-15T02:31:11;12.90;;;6.28;;
62052;SDS011;48300;52.902;6.534;2023-04-15T02:33:37;11.93;;;5.72;;
62052;SDS011;48300;52.902;6.534;2023-04-15T02:36:03;12.73;;;6.10;;
62052;SDS011;48300;52.902;6.534;2023-04-15T02:38:30;12.65;;;5.93;;
62052;SDS011;48300;52.902;6.534;2023-04-15T02:40:56;12.23;;;6.10;;
62052;SDS011;48300;52.902;6.534;2023-04-15T02:43:22;13.95;;;6.57;;
62052;SDS011;48300;52.902;6.534;2023-04-15T02:45:49;17.13;;;7.65;;
62052;SDS011;48300;52.902;6.534;2023-04-15T02:48:15;12.48;;;6.40;;
62052;SDS011;48300;52.902;6.534;2023-04-15T02:50:44;12.45;;;6.18;;
62052;SDS011;48300;52.902;6.534;2023-04-15T02:53:10;18.30;;;6.72;;
62052;SDS011;48300;52.902;6.534;2023-04-15T02:55:38;19.63;;;7.22;;
62052;SDS011;48300;52.902;6.534;2023-04-15T02:58:05;15.80;;;6.88;;
62052;SDS011;48300;52.902;6.534;2023-04-15T03:00:31;17.00;;;7.40;;
62052;SDS011;48300;52.902;6.534;2023-04-15T03:03:00;14.35;;;7.35;;
62052;SDS011;48300;52.902;6.534;2023-04-15T03:05:27;10.38;;;6.10;;
62052;SDS011;48300;52.902;6.534;2023-04-15T03:07:53;14.65;;;6.70;;
62052;SDS011;48300;52.902;6.534;2023-04-15T03:10:19;10.98;;;6.32;;
62052;SDS011;48300;52.902;6.534;2023-04-15T03:12:46;13.68;;;6.68;;
62052;SDS011;48300;52.902;6.534;2023-04-15T03:15:12;14.93;;;6.00;;
62052;SDS011;48300;52.902;6.534;2023-04-15T03:17:38;14.20;;;6.13;;
62052;SDS011;48300;52.902;6.534;2023-04-15T03:20:05;9.23;;;5.90;;
62052;SDS011;48300;52.902;6.534;2023-04-15T03:22:31;12.57;;;6.35;;
62052;SDS011;48300;52.902;6.534;2023-04-15T03:24:57;13.80;;;6.35;;
62052;SDS011;48300;52.902;6.534;2023-04-15T03:27:24;10.80;;;6.10;;
62052;SDS011;48300;52.902;6.534;2023-04-15T03:29:50;13.40;;;6.55;;
62052;SDS011;48300;52.902;6.534;2023-04-15T03:32:16;11.25;;;6.25;;
62052;SDS011;48300;52.902;6.534;2023-04-15T03:34:43;12.27;;;6.28;;
62052;SDS011;48300;52.902;6.534;2023-04-15T03:37:09;11.63;;;6.10;;
62052;SDS011;48300;52.902;6.534;2023-04-15T03:39:35;11.90;;;6.63;;
62052;SDS011;48300;52.902;6.534;2023-04-15T03:42:01;10.23;;;5.50;;
62052;SDS011;48300;52.902;6.534;2023-04-15T03:44:27;18.10;;;7.07;;
62052;SDS011;48300;52.902;6.534;2023-04-15T03:46:54;10.98;;;6.38;;
62052;SDS011;48300;52.902;6.534;2023-04-15T03:49:20;12.20;;;6.38;;
62052;SDS011;48300;52.902;6.534;2023-04-15T03:51:47;13.77;;;6.15;;
62052;SDS011;48300;52.902;6.534;2023-04-15T03:54:13;13.05;;;6.35;;
62052;SDS011;48300;52.902;6.534;2023-04-15T03:56:40;13.25;;;6.65;;
62052;SDS011;48300;52.902;6.534;2023-04-15T03:59:06;12.50;;;6.18;;
62052;SDS011;48300;52.902;6.534;2023-04-15T04:01:32;13.20;;;6.60;;
62052;SDS011;48300;52.902;6.534;2023-04-15T04:03:58;11.02;;;6.97;;
62052;SDS011;48300;52.902;6.534;2023-04-15T04:06:24;11.73;;;6.45;;
62052;SDS011;48300;52.902;6.534;2023-04-15T04:08:51;15.57;;;6.78;;
62052;SDS011;48300;52.902;6.534;2023-04-15T04:11:17;13.05;;;6.43;;
62052;SDS011;48300;52.902;6.534;2023-04-15T04:13:43;13.10;;;6.20;;
62052;SDS011;48300;52.902;6.534;2023-04-15T04:16:10;15.90;;;6.97;;
62052;SDS011;48300;52.902;6.534;2023-04-15T04:18:36;14.77;;;6.85;;
62052;SDS011;48300;52.902;6.534;2023-04-15T04:21:02;10.57;;;6.75;;
62052;SDS011;48300;52.902;6.534;2023-04-15T04:23:28;16.08;;;6.47;;
62052;SDS011;48300;52.902;6.534;2023-04-15T04:25:55;20.77;;;7.72;;
62052;SDS011;48300;52.902;6.534;2023-04-15T04:28:22;13.38;;;6.43;;
62052;SDS011;48300;52.902;6.534;2023-04-15T04:30:48;10.95;;;6.00;;
62052;SDS011;48300;52.902;6.534;2023-04-15T04:33:14;13.85;;;7.07;;
62052;SDS011;48300;52.902;6.534;2023-04-15T04:35:40;12.68;;;7.35;;
62052;SDS011;48300;52.902;6.534;2023-04-15T04:38:06;12.85;;;6.97;;
62052;SDS011;48300;52.902;6.534;2023-04-15T04:40:33;12.90;;;6.72;;
62052;SDS011;48300;52.902;6.534;2023-04-15T04:42:59;13.52;;;7.10;;
62052;SDS011;48300;52.902;6.534;2023-04-15T04:45:25;12.27;;;6.50;;
62052;SDS011;48300;52.902;6.534;2023-04-15T04:47:51;13.75;;;6.43;;
62052;SDS011;48300;52.902;6.534;2023-04-15T04:50:18;11.77;;;6.65;;
62052;SDS011;48300;52.902;6.534;2023-04-15T04:52:44;15.38;;;8.05;;
62052;SDS011;48300;52.902;6.534;2023-04-15T04:55:10;14.88;;;8.00;;
62052;SDS011;48300;52.902;6.534;2023-04-15T04:57:37;16.38;;;8.07;;
62052;SDS011;48300;52.902;6.534;2023-04-15T05:00:05;15.63;;;9.25;;
62052;SDS011;48300;52.902;6.534;2023-04-15T05:02:32;17.60;;;8.27;;
62052;SDS011;48300;52.902;6.534;2023-04-15T05:04:58;16.55;;;8.55;;
62052;SDS011;48300;52.902;6.534;2023-04-15T05:07:25;12.75;;;7.75;;
62052;SDS011;48300;52.902;6.534;2023-04-15T05:09:51;17.40;;;8.10;;
62052;SDS011;48300;52.902;6.534;2023-04-15T05:12:17;15.32;;;8.02;;
62052;SDS011;48300;52.902;6.534;2023-04-15T05:14:43;15.70;;;7.97;;
62052;SDS011;48300;52.902;6.534;2023-04-15T05:17:10;14.88;;;7.78;;
62052;SDS011;48300;52.902;6.534;2023-04-15T05:19:37;13.05;;;7.65;;
62052;SDS011;48300;52.902;6.534;2023-04-15T05:22:03;14.50;;;7.50;;
62052;SDS011;48300;52.902;6.534;2023-04-15T05:24:33;13.40;;;7.18;;
62052;SDS011;48300;52.902;6.534;2023-04-15T05:27:07;20.10;;;8.85;;
62052;SDS011;48300;52.902;6.534;2023-04-15T05:29:43;20.58;;;9.38;;
62052;SDS011;48300;52.902;6.534;2023-04-15T05:32:19;16.85;;;9.00;;
62052;SDS011;48300;52.902;6.534;2023-04-15T05:34:56;16.55;;;8.13;;
62052;SDS011;48300;52.902;6.534;2023-04-15T05:37:29;14.68;;;7.90;;
62052;SDS011;48300;52.902;6.534;2023-04-15T05:39:56;14.63;;;8.13;;
62052;SDS011;48300;52.902;6.534;2023-04-15T05:42:22;16.08;;;8.68;;
62052;SDS011;48300;52.902;6.534;2023-04-15T05:44:48;14.57;;;7.55;;
62052;SDS011;48300;52.902;6.534;2023-04-15T05:47:15;13.50;;;7.65;;
62052;SDS011;48300;52.902;6.534;2023-04-15T05:49:41;13.90;;;7.40;;
62052;SDS011;48300;52.902;6.534;2023-04-15T05:52:07;15.80;;;8.13;;
62052;SDS011;48300;52.902;6.534;2023-04-15T05:54:33;18.30;;;8.60;;
62052;SDS011;48300;52.902;6.534;2023-04-15T05:56:59;18.60;;;9.57;;
62052;SDS011;48300;52.902;6.534;2023-04-15T05:59:25;19.30;;;9.23;;
62052;SDS011;48300;52.902;6.534;2023-04-15T06:01:52;20.90;;;9.80;;
62052;SDS011;48300;52.902;6.534;2023-04-15T06:04:18;17.08;;;9.50;;
62052;SDS011;48300;52.902;6.534;2023-04-15T06:06:45;17.65;;;8.75;;
62052;SDS011;48300;52.902;6.534;2023-04-15T06:09:11;16.25;;;8.60;;
62052;SDS011;48300;52.902;6.534;2023-04-15T06:11:37;19.17;;;9.52;;
62052;SDS011;48300;52.902;6.534;2023-04-15T06:14:05;16.63;;;9.48;;
62052;SDS011;48300;52.902;6.534;2023-04-15T06:16:32;19.20;;;9.88;;
62052;SDS011;48300;52.902;6.534;2023-04-15T06:18:58;16.83;;;9.88;;
62052;SDS011;48300;52.902;6.534;2023-04-15T06:21:24;20.60;;;11.02;;
62052;SDS011;48300;52.902;6.534;2023-04-15T06:23:51;23.35;;;11.55;;
62052;SDS011;48300;52.902;6.534;2023-04-15T06:26:17;16.77;;;9.05;;
62052;SDS011;48300;52.902;6.534;2023-04-15T06:28:47;15.60;;;9.20;;
62052;SDS011;48300;52.902;6.534;2023-04-15T06:31:25;17.50;;;8.45;;
62052;SDS011;48300;52.902;6.534;2023-04-15T06:34:02;17.30;;;9.30;;
62052;SDS011;48300;52.902;6.534;2023-04-15T06:36:39;16.23;;;9.90;;
62052;SDS011;48300;52.902;6.534;2023-04-15T06:39:17;17.20;;;8.35;;
62052;SDS011;48300;52.902;6.534;2023-04-15T06:41:55;19.70;;;8.77;;
62052;SDS011;48300;52.902;6.534;2023-04-15T06:44:32;20.13;;;10.50;;
62052;SDS011;48300;52.902;6.534;2023-04-15T06:47:09;16.77;;;9.88;;
62052;SDS011;48300;52.902;6.534;2023-04-15T06:49:46;16.27;;;9.45;;
62052;SDS011;48300;52.902;6.534;2023-04-15T06:52:23;17.23;;;9.00;;
62052;SDS011;48300;52.902;6.534;2023-04-15T06:54:59;16.60;;;8.73;;
62052;SDS011;48300;52.902;6.534;2023-04-15T06:57:36;15.98;;;8.43;;
62052;SDS011;48300;52.902;6.534;2023-04-15T07:02:49;19.65;;;10.00;;
62052;SDS011;48300;52.902;6.534;2023-04-15T07:05:26;17.75;;;9.73;;
62052;SDS011;48300;52.902;6.534;2023-04-15T07:10:40;15.27;;;7.85;;
62052;SDS011;48300;52.902;6.534;2023-04-15T07:13:14;15.88;;;8.15;;
62052;SDS011;48300;52.902;6.534;2023-04-15T07:15:40;16.90;;;8.30;;
62052;SDS011;48300;52.902;6.534;2023-04-15T07:18:06;14.25;;;6.88;;
62052;SDS011;48300;52.902;6.534;2023-04-15T07:20:33;14.43;;;8.43;;
62052;SDS011;48300;52.902;6.534;2023-04-15T07:23:00;14.73;;;7.22;;
62052;SDS011;48300;52.902;6.534;2023-04-15T07:25:26;15.98;;;7.63;;
62052;SDS011;48300;52.902;6.534;2023-04-15T07:27:52;16.13;;;8.52;;
62052;SDS011;48300;52.902;6.534;2023-04-15T07:30:19;12.68;;;7.57;;
62052;SDS011;48300;52.902;6.534;2023-04-15T07:32:45;15.48;;;8.27;;
62052;SDS011;48300;52.902;6.534;2023-04-15T07:35:11;13.73;;;7.40;;
62052;SDS011;48300;52.902;6.534;2023-04-15T07:37:37;14.27;;;7.60;;
62052;SDS011;48300;52.902;6.534;2023-04-15T07:40:03;20.90;;;10.40;;
62052;SDS011;48300;52.902;6.534;2023-04-15T07:42:31;15.23;;;7.63;;
62052;SDS011;48300;52.902;6.534;2023-04-15T07:44:58;13.18;;;7.15;;
62052;SDS011;48300;52.902;6.534;2023-04-15T07:47:25;16.17;;;6.63;;
62052;SDS011;48300;52.902;6.534;2023-04-15T07:49:51;10.68;;;6.22;;
62052;SDS011;48300;52.902;6.534;2023-04-15T07:52:17;14.13;;;6.97;;
62052;SDS011;48300;52.902;6.534;2023-04-15T07:54:44;15.50;;;6.55;;
62052;SDS011;48300;52.902;6.534;2023-04-15T07:57:10;13.80;;;6.15;;
62052;SDS011;48300;52.902;6.534;2023-04-15T07:59:36;11.05;;;6.55;;
62052;SDS011;48300;52.902;6.534;2023-04-15T08:02:02;10.88;;;6.13;;
62052;SDS011;48300;52.902;6.534;2023-04-15T08:04:28;11.77;;;6.15;;
62052;SDS011;48300;52.902;6.534;2023-04-15T08:06:55;10.60;;;5.53;;
62052;SDS011;48300;52.902;6.534;2023-04-15T08:09:22;13.02;;;5.50;;
62052;SDS011;48300;52.902;6.534;2023-04-15T08:11:48;10.35;;;5.28;;
62052;SDS011;48300;52.902;6.534;2023-04-15T08:14:15;11.73;;;5.00;;
62052;SDS011;48300;52.902;6.534;2023-04-15T08:16:41;9.75;;;4.45;;
62052;SDS011;48300;52.902;6.534;2023-04-15T08:19:07;8.60;;;4.20;;
62052;SDS011;48300;52.902;6.534;2023-04-15T08:21:34;10.48;;;4.05;;
62052;SDS011;48300;52.902;6.534;2023-04-15T08:24:00;8.63;;;4.47;;
62052;SDS011;48300;52.902;6.534;2023-04-15T08:26:27;12.55;;;4.53;;
62052;SDS011;48300;52.902;6.534;2023-04-15T08:28:53;10.43;;;4.47;;
62052;SDS011;48300;52.902;6.534;2023-04-15T08:31:19;7.85;;;4.00;;
62052;SDS011;48300;52.902;6.534;2023-04-15T08:33:46;9.35;;;3.78;;
62052;SDS011;48300;52.902;6.534;2023-04-15T08:36:12;9.35;;;4.40;;
62052;SDS011;48300;52.902;6.534;2023-04-15T08:38:39;7.45;;;4.32;;
62052;SDS011;48300;52.902;6.534;2023-04-15T08:41:10;11.65;;;4.03;;
62052;SDS011;48300;52.902;6.534;2023-04-15T08:43:44;12.45;;;4.00;;
62052;SDS011;48300;52.902;6.534;2023-04-15T08:46:12;9.85;;;5.18;;
62052;SDS011;48300;52.902;6.534;2023-04-15T08:48:38;9.00;;;4.47;;
62052;SDS011;48300;52.902;6.534;2023-04-15T08:51:05;11.57;;;4.13;;
62052;SDS011;48300;52.902;6.534;2023-04-15T08:53:32;7.70;;;4.30;;
62052;SDS011;48300;52.902;6.534;2023-04-15T08:55:59;8.20;;;4.28;;
62052;SDS011;48300;52.902;6.534;2023-04-15T08:58:27;9.82;;;4.93;;
62052;SDS011;48300;52.902;6.534;2023-04-15T09:00:54;8.60;;;4.15;;
62052;SDS011;48300;52.902;6.534;2023-04-15T09:03:21;8.85;;;4.05;;
62052;SDS011;48300;52.902;6.534;2023-04-15T09:05:49;9.32;;;5.07;;
62052;SDS011;48300;52.902;6.534;2023-04-15T09:08:16;7.32;;;4.15;;
62052;SDS011;48300;52.902;6.534;2023-04-15T09:10:42;10.07;;;4.05;;
62052;SDS011;48300;52.902;6.534;2023-04-15T09:13:08;8.85;;;3.80;;
62052;SDS011;48300;52.902;6.534;2023-04-15T09:15:36;5.75;;;3.28;;
62052;SDS011;48300;52.902;6.534;2023-04-15T09:18:03;9.18;;;3.95;;
62052;SDS011;48300;52.902;6.534;2023-04-15T09:20:29;9.25;;;4.13;;
62052;SDS011;48300;52.902;6.534;2023-04-15T09:22:56;8.43;;;3.97;;
62052;SDS011;48300;52.902;6.534;2023-04-15T09:27:50;11.35;;;3.30;;
62052;SDS011;48300;52.902;6.534;2023-04-15T09:30:17;9.50;;;4.60;;
62052;SDS011;48300;52.902;6.534;2023-04-15T09:32:49;6.60;;;3.42;;
62052;SDS011;48300;52.902;6.534;2023-04-15T09:35:16;8.88;;;3.78;;
62052;SDS011;48300;52.902;6.534;2023-04-15T09:37:42;6.75;;;2.72;;
62052;SDS011;48300;52.902;6.534;2023-04-15T09:40:08;7.57;;;2.63;;
62052;SDS011;48300;52.902;6.534;2023-04-15T09:42:35;5.35;;;2.50;;
62052;SDS011;48300;52.902;6.534;2023-04-15T09:45:10;7.55;;;3.10;;
62052;SDS011;48300;52.902;6.534;2023-04-15T09:47:37;3.75;;;1.83;;
62052;SDS011;48300;52.902;6.534;2023-04-15T09:50:03;4.35;;;2.00;;
62052;SDS011;48300;52.902;6.534;2023-04-15T09:52:29;6.40;;;1.90;;
62052;SDS011;48300;52.902;6.534;2023-04-15T09:54:56;4.93;;;2.05;;
62052;SDS011;48300;52.902;6.534;2023-04-15T09:57:23;4.40;;;1.90;;
62052;SDS011;48300;52.902;6.534;2023-04-15T09:59:49;3.92;;;1.90;;
62052;SDS011;48300;52.902;6.534;2023-04-15T10:02:17;6.68;;;2.28;;
62052;SDS011;48300;52.902;6.534;2023-04-15T10:07:11;3.67;;;1.65;;
62052;SDS011;48300;52.902;6.534;2023-04-15T10:09:38;5.25;;;1.80;;
62052;SDS011;48300;52.902;6.534;2023-04-15T10:12:05;4.25;;;1.35;;
62052;SDS011;48300;52.902;6.534;2023-04-15T10:14:32;5.15;;;1.60;;
62052;SDS011;48300;52.902;6.534;2023-04-15T10:17:00;3.92;;;1.35;;
62052;SDS011;48300;52.902;6.534;2023-04-15T10:19:27;4.55;;;1.40;;
62052;SDS011;48300;52.902;6.534;2023-04-15T10:21:56;2.15;;;1.58;;
62052;SDS011;48300;52.902;6.534;2023-04-15T10:24:23;6.70;;;1.38;;
62052;SDS011;48300;52.902;6.534;2023-04-15T10:26:51;3.30;;;1.50;;
62052;SDS011;48300;52.902;6.534;2023-04-15T10:29:17;6.70;;;1.30;;
62052;SDS011;48300;52.902;6.534;2023-04-15T10:31:43;5.07;;;1.80;;
62052;SDS011;48300;52.902;6.534;2023-04-15T10:34:10;6.20;;;1.42;;
62052;SDS011;48300;52.902;6.534;2023-04-15T10:36:36;2.47;;;1.30;;
62052;SDS011;48300;52.902;6.534;2023-04-15T10:42:05;2.22;;;1.20;;
62052;SDS011;48300;52.902;6.534;2023-04-15T10:44:44;4.30;;;1.42;;
62052;SDS011;48300;52.902;6.534;2023-04-15T10:47:20;4.32;;;1.38;;
62052;SDS011;48300;52.902;6.534;2023-04-15T10:49:47;7.93;;;1.52;;
62052;SDS011;48300;52.902;6.534;2023-04-15T10:52:15;2.53;;;1.48;;
62052;SDS011;48300;52.902;6.534;2023-04-15T10:54:42;2.78;;;1.23;;
62052;SDS011;48300;52.902;6.534;2023-04-15T10:57:12;2.75;;;1.20;;
62052;SDS011;48300;52.902;6.534;2023-04-15T11:10:00;2.55;;;1.10;;
62052;SDS011;48300;52.902;6.534;2023-04-15T11:12:33;6.07;;;1.33;;
62052;SDS011;48300;52.902;6.534;2023-04-15T11:15:23;4.47;;;1.33;;
62052;SDS011;48300;52.902;6.534;2023-04-15T11:17:46;2.60;;;1.00;;
62052;SDS011;48300;52.902;6.534;2023-04-15T11:20:14;3.00;;;1.20;;
62052;SDS011;48300;52.902;6.534;2023-04-15T11:22:47;5.13;;;1.95;;
62052;SDS011;48300;52.902;6.534;2023-04-15T11:25:21;6.25;;;1.55;;
62052;SDS011;48300;52.902;6.534;2023-04-15T11:27:47;4.97;;;1.52;;
62052;SDS011;48300;52.902;6.534;2023-04-15T11:30:16;6.95;;;1.65;;
62052;SDS011;48300;52.902;6.534;2023-04-15T11:35:08;14.07;;;1.92;;
62052;SDS011;48300;52.902;6.534;2023-04-15T11:37:35;4.32;;;1.40;;
62052;SDS011;48300;52.902;6.534;2023-04-15T11:40:01;7.22;;;2.13;;
62052;SDS011;48300;52.902;6.534;2023-04-15T11:42:28;6.32;;;1.70;;
62052;SDS011;48300;52.902;6.534;2023-04-15T11:45:13;11.13;;;2.05;;
62052;SDS011;48300;52.902;6.534;2023-04-15T11:47:40;8.30;;;1.85;;
62052;SDS011;48300;52.902;6.534;2023-04-15T11:50:13;24.35;;;2.55;;
62052;SDS011;48300;52.902;6.534;2023-04-15T11:52:42;5.55;;;1.83;;
62052;SDS011;48300;52.902;6.534;2023-04-15T11:55:16;7.55;;;2.17;;
62052;SDS011;48300;52.902;6.534;2023-04-15T11:57:43;10.45;;;2.50;;
62052;SDS011;48300;52.902;6.534;2023-04-15T12:00:09;7.43;;;1.70;;
62052;SDS011;48300;52.902;6.534;2023-04-15T12:02:36;10.15;;;2.08;;
62052;SDS011;48300;52.902;6.534;2023-04-15T12:05:03;4.53;;;1.70;;
62052;SDS011;48300;52.902;6.534;2023-04-15T12:07:30;12.68;;;2.17;;
62052;SDS011;48300;52.902;6.534;2023-04-15T12:09:57;4.78;;;1.63;;
62052;SDS011;48300;52.902;6.534;2023-04-15T12:12:29;8.07;;;1.83;;
62052;SDS011;48300;52.902;6.534;2023-04-15T12:14:56;5.65;;;1.70;;
62052;SDS011;48300;52.902;6.534;2023-04-15T12:17:23;3.00;;;1.40;;
62052;SDS011;48300;52.902;6.534;2023-04-15T12:19:54;7.10;;;1.70;;
62052;SDS011;48300;52.902;6.534;2023-04-15T12:22:21;5.40;;;1.50;;
62052;SDS011;48300;52.902;6.534;2023-04-15T12:24:52;5.43;;;1.17;;
62052;SDS011;48300;52.902;6.534;2023-04-15T12:27:24;4.93;;;1.52;;
62052;SDS011;48300;52.902;6.534;2023-04-15T12:29:54;10.70;;;1.83;;
62052;SDS011;48300;52.902;6.534;2023-04-15T12:32:28;5.55;;;1.40;;
62052;SDS011;48300;52.902;6.534;2023-04-15T12:34:54;6.93;;;1.50;;
62052;SDS011;48300;52.902;6.534;2023-04-15T12:37:20;3.85;;;1.40;;
62052;SDS011;48300;52.902;6.534;2023-04-15T12:39:47;4.18;;;1.30;;
62052;SDS011;48300;52.902;6.534;2023-04-15T12:42:14;6.30;;;1.48;;
62052;SDS011;48300;52.902;6.534;2023-04-15T12:44:40;5.45;;;1.33;;
62052;SDS011;48300;52.902;6.534;2023-04-15T12:47:07;4.57;;;1.50;;
62052;SDS011;48300;52.902;6.534;2023-04-15T12:49:34;9.23;;;1.50;;
62052;SDS011;48300;52.902;6.534;2023-04-15T12:52:01;8.90;;;1.40;;
62052;SDS011;48300;52.902;6.534;2023-04-15T12:54:27;7.45;;;1.48;;
62052;SDS011;48300;52.902;6.534;2023-04-15T12:56:54;7.43;;;1.20;;
62052;SDS011;48300;52.902;6.534;2023-04-15T12:59:20;3.53;;;1.00;;
62052;SDS011;48300;52.902;6.534;2023-04-15T13:01:48;9.15;;;2.20;;
62052;SDS011;48300;52.902;6.534;2023-04-15T13:04:16;4.65;;;1.42;;
62052;SDS011;48300;52.902;6.534;2023-04-15T13:06:42;3.63;;;1.08;;
62052;SDS011;48300;52.902;6.534;2023-04-15T13:09:08;9.30;;;1.50;;
62052;SDS011;48300;52.902;6.534;2023-04-15T13:11:35;6.13;;;2.08;;
62052;SDS011;48300;52.902;6.534;2023-04-15T13:14:01;6.47;;;2.17;;
62052;SDS011;48300;52.902;6.534;2023-04-15T13:16:28;8.75;;;1.25;;
62052;SDS011;48300;52.902;6.534;2023-04-15T13:18:57;10.80;;;1.38;;
62052;SDS011;48300;52.902;6.534;2023-04-15T13:21:28;5.90;;;1.20;;
62052;SDS011;48300;52.902;6.534;2023-04-15T13:23:55;7.15;;;1.80;;
62052;SDS011;48300;52.902;6.534;2023-04-15T13:26:22;8.13;;;1.77;;
62052;SDS011;48300;52.902;6.534;2023-04-15T13:28:56;5.82;;;1.60;;
62052;SDS011;48300;52.902;6.534;2023-04-15T13:31:35;5.07;;;1.40;;
62052;SDS011;48300;52.902;6.534;2023-04-15T13:34:10;5.78;;;1.42;;
62052;SDS011;48300;52.902;6.534;2023-04-15T13:45:02;10.32;;;1.58;;
62052;SDS011;48300;52.902;6.534;2023-04-15T13:51:04;7.22;;;1.73;;
62052;SDS011;48300;52.902;6.534;2023-04-15T13:53:30;8.35;;;1.35;;
62052;SDS011;48300;52.902;6.534;2023-04-15T13:55:56;7.88;;;1.30;;
62052;SDS011;48300;52.902;6.534;2023-04-15T13:58:22;12.80;;;2.55;;
62052;SDS011;48300;52.902;6.534;2023-04-15T14:00:48;5.70;;;1.17;;
62052;SDS011;48300;52.902;6.534;2023-04-15T14:03:15;8.45;;;1.33;;
62052;SDS011;48300;52.902;6.534;2023-04-15T14:05:41;5.75;;;1.42;;
62052;SDS011;48300;52.902;6.534;2023-04-15T14:08:07;6.05;;;1.30;;
62052;SDS011;48300;52.902;6.534;2023-04-15T14:10:33;5.75;;;1.42;;
62052;SDS011;48300;52.902;6.534;2023-04-15T14:13:00;8.10;;;1.52;;
62052;SDS011;48300;52.902;6.534;2023-04-15T14:15:26;5.32;;;1.38;;
62052;SDS011;48300;52.902;6.534;2023-04-15T14:17:52;6.15;;;1.77;;
62052;SDS011;48300;52.902;6.534;2023-04-15T14:20:19;3.95;;;1.17;;
62052;SDS011;48300;52.902;6.534;2023-04-15T14:22:45;4.75;;;1.60;;
62052;SDS011;48300;52.902;6.534;2023-04-15T14:25:11;6.43;;;1.10;;
62052;SDS011;48300;52.902;6.534;2023-04-15T14:27:37;6.78;;;1.10;;
62052;SDS011;48300;52.902;6.534;2023-04-15T14:30:04;9.77;;;1.92;;
62052;SDS011;48300;52.902;6.534;2023-04-15T14:32:30;3.20;;;1.40;;
62052;SDS011;48300;52.902;6.534;2023-04-15T14:34:56;5.70;;;1.10;;
62052;SDS011;48300;52.902;6.534;2023-04-15T14:37:22;8.98;;;1.35;;
62052;SDS011;48300;52.902;6.534;2023-04-15T14:39:49;4.75;;;1.30;;
62052;SDS011;48300;52.902;6.534;2023-04-15T14:42:15;5.60;;;1.48;;
62052;SDS011;48300;52.902;6.534;2023-04-15T14:44:41;5.97;;;1.70;;
62052;SDS011;48300;52.902;6.534;2023-04-15T14:47:08;8.20;;;1.35;;
62052;SDS011;48300;52.902;6.534;2023-04-15T14:49:35;6.80;;;1.05;;
62052;SDS011;48300;52.902;6.534;2023-04-15T14:52:01;3.90;;;0.93;;
62052;SDS011;48300;52.902;6.534;2023-04-15T14:54:27;10.68;;;1.13;;
62052;SDS011;48300;52.902;6.534;2023-04-15T14:56:53;4.03;;;1.35;;
62052;SDS011;48300;52.902;6.534;2023-04-15T14:59:20;9.10;;;1.52;;
62052;SDS011;48300;52.902;6.534;2023-04-15T15:01:46;6.63;;;1.33;;
62052;SDS011;48300;52.902;6.534;2023-04-15T15:04:12;8.23;;;1.58;;
62052;SDS011;48300;52.902;6.534;2023-04-15T15:06:39;9.10;;;1.48;;
62052;SDS011;48300;52.902;6.534;2023-04-15T15:09:05;7.72;;;1.58;;
62052;SDS011;48300;52.902;6.534;2023-04-15T15:11:31;4.57;;;1.23;;
62052;SDS011;48300;52.902;6.534;2023-04-15T15:13:58;7.30;;;1.50;;
62052;SDS011;48300;52.902;6.534;2023-04-15T15:16:24;6.07;;;1.33;;
62052;SDS011;48300;52.902;6.534;2023-04-15T15:18:50;10.93;;;1.45;;
62052;SDS011;48300;52.902;6.534;2023-04-15T15:21:16;8.90;;;1.30;;